Time;durP1;ratioP1;P1;durP2;ratioP2;P2;SDS_P1;SDS_P2;PMS_P1;PMS_P2;Temp;Humidity;BMP_temperature;BMP_pressure;BME280_temperature;BME280_humidity;BME280_pressure;Samples;Min_cycle;Max_cycle;Signal;HPM_P1;HPM_P2
2023/07/21 00:01:43;;;;;;;9.48;3.28;;;;;;;;;;4391149;32;318723;-82
2023/07/21 00:04:11;;;;;;;6.07;2.58;;;;;;;;;;4369492;32;416376;-82
2023/07/21 00:06:38;;;;;;;4.82;2.53;;;;;;;;;;4382423;32;317133;-82
2023/07/21 00:09:06;;;;;;;8.88;3.65;;;;;;;;;;4372895;32;317293;-82
2023/07/21 00:11:33;;;;;;;5.20;2.70;;;;;;;;;;4382683;32;317218;-82
2023/07/21 00:13:59;;;;;;;10.45;3.00;;;;;;;;;;4372267;32;317566;-82
2023/07/21 00:16:27;;;;;;;8.05;3.37;;;;;;;;;;4381725;32;318222;-82
2023/07/21 00:18:53;;;;;;;4.68;2.67;;;;;;;;;;4372463;32;317068;-82
2023/07/21 00:21:22;;;;;;;6.78;2.33;;;;;;;;;;4381537;32;317298;-82
2023/07/21 00:23:49;;;;;;;8.43;3.10;;;;;;;;;;4372608;32;316589;-82
2023/07/21 00:26:16;;;;;;;12.48;3.80;;;;;;;;;;4382413;32;316846;-82
2023/07/21 00:28:43;;;;;;;4.00;2.60;;;;;;;;;;4382467;32;317927;-81
2023/07/21 00:31:11;;;;;;;5.43;2.53;;;;;;;;;;4369854;32;416589;-82
2023/07/21 00:33:38;;;;;;;9.90;2.92;;;;;;;;;;4381365;32;316740;-82
2023/07/21 00:36:05;;;;;;;13.05;3.05;;;;;;;;;;4372346;32;316731;-82
2023/07/21 00:38:34;;;;;;;13.13;2.50;;;;;;;;;;4381980;32;318503;-82
2023/07/21 00:41:01;;;;;;;7.03;2.97;;;;;;;;;;4372345;32;317612;-82
2023/07/21 00:43:27;;;;;;;9.98;2.78;;;;;;;;;;4382061;32;316720;-82
2023/07/21 00:45:54;;;;;;;8.88;3.03;;;;;;;;;;4371353;32;317676;-82
2023/07/21 00:48:21;;;;;;;8.30;2.70;;;;;;;;;;4382205;32;317092;-82
2023/07/21 00:50:51;;;;;;;6.65;2.97;;;;;;;;;;4369781;32;317767;-82
2023/07/21 00:53:20;;;;;;;10.65;2.83;;;;;;;;;;4381693;32;317747;-82
2023/07/21 00:55:50;;;;;;;10.18;3.03;;;;;;;;;;4371553;32;318300;-82
2023/07/21 00:58:18;;;;;;;5.03;3.03;;;;;;;;;;4380527;32;329096;-82
2023/07/21 01:00:46;;;;;;;9.18;2.60;;;;;;;;;;4371117;32;317490;-82
2023/07/21 01:03:14;;;;;;;5.47;3.12;;;;;;;;;;4381956;32;316698;-82
2023/07/21 01:05:45;;;;;;;8.05;2.70;;;;;;;;;;4373198;32;317392;-81
2023/07/21 01:08:12;;;;;;;5.53;2.85;;;;;;;;;;4348483;32;416300;-82
2023/07/21 01:10:40;;;;;;;13.52;3.33;;;;;;;;;;4365875;32;317124;-81
2023/07/21 01:13:09;;;;;;;5.57;2.92;;;;;;;;;;4350416;32;318129;-82
2023/07/21 01:15:42;;;;;;;8.13;3.53;;;;;;;;;;4350787;32;317106;-82
2023/07/21 01:18:10;;;;;;;10.10;3.28;;;;;;;;;;4342510;32;316599;-82
2023/07/21 01:20:37;;;;;;;5.62;3.05;;;;;;;;;;4350410;32;317806;-82
2023/07/21 01:23:10;;;;;;;7.40;3.50;;;;;;;;;;4340914;32;316796;-82
2023/07/21 01:25:42;;;;;;;16.83;3.78;;;;;;;;;;4351020;32;317592;-82
2023/07/21 01:28:12;;;;;;;3.72;2.62;;;;;;;;;;4342124;32;318537;-82
2023/07/21 01:30:40;;;;;;;12.55;3.25;;;;;;;;;;4351975;32;316615;-82
2023/07/21 01:33:08;;;;;;;9.77;3.25;;;;;;;;;;4341611;32;318826;-82
2023/07/21 01:35:36;;;;;;;5.53;3.10;;;;;;;;;;4350677;32;317267;-82
2023/07/21 01:38:04;;;;;;;11.60;3.50;;;;;;;;;;4340753;32;316710;-82
2023/07/21 01:40:31;;;;;;;5.87;2.95;;;;;;;;;;4351696;32;317804;-82
2023/07/21 01:43:00;;;;;;;11.82;3.40;;;;;;;;;;4341912;32;317233;-82
2023/07/21 01:45:26;;;;;;;9.85;3.22;;;;;;;;;;4351773;32;318333;-82
2023/07/21 01:47:56;;;;;;;9.23;3.05;;;;;;;;;;4341811;32;317154;-82
2023/07/21 01:50:25;;;;;;;6.75;3.28;;;;;;;;;;4353457;32;317978;-81
2023/07/21 01:52:53;;;;;;;6.40;3.25;;;;;;;;;;4343496;32;317210;-82
2023/07/21 01:55:23;;;;;;;10.85;2.80;;;;;;;;;;4353312;32;317259;-82
2023/07/21 01:57:56;;;;;;;11.93;3.00;;;;;;;;;;4349899;32;318637;-82
2023/07/21 02:00:27;;;;;;;5.87;3.08;;;;;;;;;;4369651;32;318096;-82
2023/07/21 02:02:55;;;;;;;17.05;3.30;;;;;;;;;;4348068;32;317532;-82
2023/07/21 02:05:23;;;;;;;9.18;2.55;;;;;;;;;;4368383;32;317631;-82
2023/07/21 02:07:50;;;;;;;10.85;3.20;;;;;;;;;;4359683;32;317418;-82
2023/07/21 02:10:18;;;;;;;6.55;3.00;;;;;;;;;;4368325;32;317971;-83
2023/07/21 02:12:45;;;;;;;7.53;3.60;;;;;;;;;;4357989;32;317639;-82
2023/07/21 02:15:12;;;;;;;6.55;3.62;;;;;;;;;;4368899;32;317163;-82
2023/07/21 02:17:40;;;;;;;7.00;3.30;;;;;;;;;;4369347;32;316802;-82
2023/07/21 02:20:08;;;;;;;7.07;3.85;;;;;;;;;;4358830;32;317887;-82
2023/07/21 02:22:37;;;;;;;6.72;3.15;;;;;;;;;;4367806;32;317083;-82
2023/07/21 02:25:04;;;;;;;6.37;3.22;;;;;;;;;;4357581;32;316301;-82
2023/07/21 02:27:31;;;;;;;7.20;2.83;;;;;;;;;;4355406;32;316634;-82
2023/07/21 02:29:58;;;;;;;9.57;3.80;;;;;;;;;;4352129;32;322510;-82
2023/07/21 02:32:25;;;;;;;8.73;3.40;;;;;;;;;;4381268;32;317244;-82
2023/07/21 02:34:53;;;;;;;14.55;3.50;;;;;;;;;;4381596;32;317146;-82
2023/07/21 02:37:19;;;;;;;5.72;3.65;;;;;;;;;;4370813;32;326651;-81
2023/07/21 02:39:46;;;;;;;10.63;3.50;;;;;;;;;;4383561;32;317102;-82
2023/07/21 02:42:13;;;;;;;7.70;3.20;;;;;;;;;;4372531;32;318391;-82
2023/07/21 02:44:39;;;;;;;9.68;2.70;;;;;;;;;;4382268;32;317106;-82
2023/07/21 02:47:09;;;;;;;6.28;3.25;;;;;;;;;;4373168;32;317345;-82
2023/07/21 02:49:36;;;;;;;5.45;3.53;;;;;;;;;;4383408;32;317200;-81
2023/07/21 02:52:04;;;;;;;8.27;3.05;;;;;;;;;;4373456;32;317492;-82
2023/07/21 02:54:31;;;;;;;7.55;3.35;;;;;;;;;;4383296;32;316893;-81
2023/07/21 02:56:58;;;;;;;8.40;3.40;;;;;;;;;;4372628;32;317102;-82
2023/07/21 02:59:26;;;;;;;7.47;3.40;;;;;;;;;;4382266;32;317518;-82
2023/07/21 03:01:55;;;;;;;11.40;3.80;;;;;;;;;;4393398;32;317273;-81
2023/07/21 03:04:23;;;;;;;8.13;3.47;;;;;;;;;;4370491;32;318352;-81
2023/07/21 03:06:51;;;;;;;10.90;3.62;;;;;;;;;;4383727;32;317686;-81
2023/07/21 03:09:19;;;;;;;7.25;3.25;;;;;;;;;;4373453;32;318653;-82
2023/07/21 03:11:46;;;;;;;8.75;3.95;;;;;;;;;;4382329;32;317394;-81
2023/07/21 03:14:13;;;;;;;7.95;3.55;;;;;;;;;;4371093;32;317393;-82
2023/07/21 03:16:40;;;;;;;7.72;3.30;;;;;;;;;;4383692;32;317143;-81
2023/07/21 03:19:07;;;;;;;8.45;3.05;;;;;;;;;;4392178;32;317322;-81
2023/07/21 03:21:34;;;;;;;9.27;3.55;;;;;;;;;;4403266;32;20262;-81
2023/07/21 03:24:01;;;;;;;9.25;3.62;;;;;;;;;;4381358;32;316078;-82
2023/07/21 03:26:29;;;;;;;7.53;3.30;;;;;;;;;;4383084;32;317362;-81
2023/07/21 03:28:55;;;;;;;13.23;4.10;;;;;;;;;;4383256;32;317694;-81
2023/07/21 03:31:22;;;;;;;5.65;3.67;;;;;;;;;;4372432;32;318182;-82
2023/07/21 03:33:49;;;;;;;18.98;3.97;;;;;;;;;;4382626;32;316609;-81
2023/07/21 03:36:16;;;;;;;10.98;3.47;;;;;;;;;;4372550;32;341228;-82
2023/07/21 03:38:43;;;;;;;8.55;3.33;;;;;;;;;;4381242;32;317893;-81
2023/07/21 03:41:10;;;;;;;9.30;3.50;;;;;;;;;;4383319;32;316565;-81
2023/07/21 03:43:39;;;;;;;8.52;3.75;;;;;;;;;;4371914;32;317489;-82
2023/07/21 03:46:08;;;;;;;8.15;3.67;;;;;;;;;;4383071;32;317193;-81
2023/07/21 03:48:35;;;;;;;13.38;4.00;;;;;;;;;;4372981;32;317328;-81
2023/07/21 03:51:03;;;;;;;8.43;3.95;;;;;;;;;;4382635;32;318047;-81
2023/07/21 03:53:31;;;;;;;5.47;3.17;;;;;;;;;;4372672;32;317228;-81
2023/07/21 03:55:57;;;;;;;12.82;3.70;;;;;;;;;;4382439;32;329689;-81
2023/07/21 03:58:24;;;;;;;8.25;3.30;;;;;;;;;;4372861;32;318376;-83
2023/07/21 04:00:52;;;;;;;6.37;2.97;;;;;;;;;;4383026;32;317307;-81
2023/07/21 04:03:19;;;;;;;10.82;4.22;;;;;;;;;;4376597;32;317663;-81
2023/07/21 04:05:46;;;;;;;12.10;3.87;;;;;;;;;;4356776;32;318253;-82
2023/07/21 04:08:13;;;;;;;8.13;3.92;;;;;;;;;;4365038;32;318360;-81
2023/07/21 04:10:41;;;;;;;6.22;3.83;;;;;;;;;;4357237;32;328038;-82
2023/07/21 04:13:09;;;;;;;9.88;4.28;;;;;;;;;;4367150;32;316456;-81
2023/07/21 04:15:35;;;;;;;9.20;4.18;;;;;;;;;;4358738;32;317589;-81
2023/07/21 04:18:04;;;;;;;9.20;3.67;;;;;;;;;;4367275;32;317275;-81
2023/07/21 04:20:31;;;;;;;14.15;4.05;;;;;;;;;;4366281;32;316507;-81
2023/07/21 04:22:57;;;;;;;7.50;4.12;;;;;;;;;;4353473;32;418554;-81
2023/07/21 04:25:24;;;;;;;5.75;3.60;;;;;;;;;;4367623;32;317227;-81
2023/07/21 04:27:53;;;;;;;12.95;4.87;;;;;;;;;;4367165;32;317245;-81
2023/07/21 04:30:20;;;;;;;7.37;3.33;;;;;;;;;;4354941;32;326608;-81
2023/07/21 04:32:46;;;;;;;8.60;3.95;;;;;;;;;;4367117;32;317202;-82
2023/07/21 04:35:16;;;;;;;18.00;3.97;;;;;;;;;;4366819;32;316631;-81
2023/07/21 04:37:43;;;;;;;13.52;4.35;;;;;;;;;;4357499;32;318171;-82
2023/07/21 04:40:11;;;;;;;12.15;4.22;;;;;;;;;;4366970;32;316759;-81
2023/07/21 04:42:37;;;;;;;16.12;4.90;;;;;;;;;;4367237;32;318185;-81
2023/07/21 04:45:06;;;;;;;14.43;4.78;;;;;;;;;;4353447;32;417477;-81
2023/07/21 04:47:32;;;;;;;13.88;3.78;;;;;;;;;;4366980;32;316959;-81
2023/07/21 04:49:59;;;;;;;15.02;4.97;;;;;;;;;;4356230;32;317132;-81
2023/07/21 04:52:27;;;;;;;18.02;5.20;;;;;;;;;;4364593;32;353121;-81
2023/07/21 04:54:54;;;;;;;13.85;3.83;;;;;;;;;;4355754;32;330162;-82
2023/07/21 04:57:20;;;;;;;12.27;4.62;;;;;;;;;;4366723;32;317997;-81
2023/07/21 04:59:47;;;;;;;13.62;3.67;;;;;;;;;;4357298;32;316829;-82
2023/07/21 05:02:14;;;;;;;9.88;4.22;;;;;;;;;;4366003;32;316883;-81
2023/07/21 05:04:41;;;;;;;19.15;4.97;;;;;;;;;;4362634;32;317244;-82
2023/07/21 05:07:08;;;;;;;17.25;4.75;;;;;;;;;;4364387;32;352781;-81
2023/07/21 05:09:36;;;;;;;10.05;4.00;;;;;;;;;;4364581;32;317657;-81
2023/07/21 05:12:03;;;;;;;13.15;4.18;;;;;;;;;;4355721;32;318119;-80
2023/07/21 05:14:30;;;;;;;11.60;4.22;;;;;;;;;;4366682;32;318611;-81
2023/07/21 05:16:57;;;;;;;9.88;4.68;;;;;;;;;;4356105;32;317954;-81
2023/07/21 05:19:23;;;;;;;7.68;3.62;;;;;;;;;;4366412;32;317344;-81
2023/07/21 05:21:50;;;;;;;6.57;4.00;;;;;;;;;;4357393;32;315873;-82
2023/07/21 05:24:17;;;;;;;9.00;4.30;;;;;;;;;;4368350;32;315922;-81
2023/07/21 05:26:46;;;;;;;10.05;4.57;;;;;;;;;;4359958;32;316147;-82
2023/07/21 05:29:13;;;;;;;8.32;4.25;;;;;;;;;;4368883;32;317962;-82
2023/07/21 05:31:39;;;;;;;6.12;3.70;;;;;;;;;;4368457;32;317209;-82
2023/07/21 05:34:07;;;;;;;12.00;4.32;;;;;;;;;;4359818;32;317261;-81
2023/07/21 05:36:34;;;;;;;7.47;3.62;;;;;;;;;;4369582;32;318477;-81
2023/07/21 05:39:01;;;;;;;9.82;4.05;;;;;;;;;;4359142;32;317624;-82
2023/07/21 05:41:27;;;;;;;10.43;4.95;;;;;;;;;;4368727;32;317356;-82
2023/07/21 05:43:56;;;;;;;8.18;4.60;;;;;;;;;;4358748;32;343821;-82
2023/07/21 05:46:22;;;;;;;14.77;4.72;;;;;;;;;;4368289;32;349590;-80
2023/07/21 05:48:49;;;;;;;6.78;3.47;;;;;;;;;;4369394;32;318202;-81
2023/07/21 05:51:17;;;;;;;17.42;4.78;;;;;;;;;;4358607;32;317343;-81
2023/07/21 05:53:44;;;;;;;17.33;4.68;;;;;;;;;;4369445;32;318450;-81
2023/07/21 05:56:11;;;;;;;11.12;4.25;;;;;;;;;;4358306;32;318575;-82
2023/07/21 05:58:38;;;;;;;7.07;3.70;;;;;;;;;;4368099;32;318194;-81
2023/07/21 06:01:06;;;;;;;19.00;4.62;;;;;;;;;;4359223;32;316952;-81
2023/07/21 06:03:33;;;;;;;13.32;4.57;;;;;;;;;;4375662;32;318705;-81
2023/07/21 06:06:00;;;;;;;14.15;4.57;;;;;;;;;;4374322;32;318406;-82
2023/07/21 06:08:26;;;;;;;12.30;4.18;;;;;;;;;;4382773;32;318038;-82
2023/07/21 06:10:56;;;;;;;13.05;5.12;;;;;;;;;;4384053;32;318583;-81
2023/07/21 06:13:23;;;;;;;13.75;4.95;;;;;;;;;;4367796;32;418054;-81
2023/07/21 06:15:49;;;;;;;15.82;5.43;;;;;;;;;;4383075;32;318378;-81
2023/07/21 06:18:17;;;;;;;9.13;5.15;;;;;;;;;;4373349;32;318150;-81
2023/07/21 06:20:44;;;;;;;10.80;5.20;;;;;;;;;;4384068;32;317547;-81
2023/07/21 06:23:11;;;;;;;20.00;5.53;;;;;;;;;;4374152;32;317601;-81
2023/07/21 06:25:38;;;;;;;15.82;5.60;;;;;;;;;;4383049;32;317793;-81
2023/07/21 06:28:05;;;;;;;10.95;4.15;;;;;;;;;;4372757;32;318633;-81
2023/07/21 06:30:31;;;;;;;8.88;4.37;;;;;;;;;;4382849;32;317762;-81
2023/07/21 06:32:58;;;;;;;12.57;4.22;;;;;;;;;;4373193;32;317060;-82
2023/07/21 06:35:26;;;;;;;9.70;3.90;;;;;;;;;;4383965;32;318140;-81
2023/07/21 06:37:53;;;;;;;6.37;3.75;;;;;;;;;;4383820;32;317297;-81
2023/07/21 06:40:20;;;;;;;14.10;4.18;;;;;;;;;;4358426;32;317278;-81
2023/07/21 06:42:47;;;;;;;8.88;4.70;;;;;;;;;;4368279;32;322609;-81
2023/07/21 06:45:14;;;;;;;7.55;4.03;;;;;;;;;;4358938;32;316486;-81
2023/07/21 06:47:40;;;;;;;13.98;4.60;;;;;;;;;;4367553;32;317056;-81
2023/07/21 06:50:08;;;;;;;10.50;5.00;;;;;;;;;;4357642;32;346617;-82
2023/07/21 06:52:36;;;;;;;7.62;3.72;;;;;;;;;;4368500;32;317583;-83
2023/07/21 06:55:03;;;;;;;14.87;4.57;;;;;;;;;;4359127;32;317572;-82
2023/07/21 06:57:30;;;;;;;8.68;3.87;;;;;;;;;;4368404;32;318330;-82
2023/07/21 06:59:57;;;;;;;10.10;4.37;;;;;;;;;;4358527;32;316965;-84
2023/07/21 07:02:24;;;;;;;9.43;4.20;;;;;;;;;;4367263;32;317639;-82
2023/07/21 07:04:54;;;;;;;9.63;4.18;;;;;;;;;;4338200;32;331646;-82
2023/07/21 07:07:21;;;;;;;10.02;3.80;;;;;;;;;;4327653;32;317159;-82
2023/07/21 07:09:49;;;;;;;6.15;3.83;;;;;;;;;;4337548;32;318129;-82
2023/07/21 07:12:17;;;;;;;7.82;4.00;;;;;;;;;;4328836;32;316859;-82
2023/07/21 07:14:46;;;;;;;11.15;4.57;;;;;;;;;;4353204;32;317384;-81
2023/07/21 07:17:12;;;;;;;9.70;3.67;;;;;;;;;;4340706;32;318264;-81
2023/07/21 07:19:39;;;;;;;10.43;4.25;;;;;;;;;;4353482;32;317682;-81
2023/07/21 07:22:08;;;;;;;7.62;4.55;;;;;;;;;;4343367;32;318590;-83
2023/07/21 07:24:35;;;;;;;9.68;4.18;;;;;;;;;;4356539;32;317282;-82
2023/07/21 07:27:04;;;;;;;16.95;4.65;;;;;;;;;;4352133;32;317637;-81
2023/07/21 07:29:30;;;;;;;10.43;4.32;;;;;;;;;;4366619;32;353268;-83
2023/07/21 07:31:57;;;;;;;9.73;4.72;;;;;;;;;;4367715;32;317643;-82
2023/07/21 07:34:24;;;;;;;8.30;3.50;;;;;;;;;;4348881;32;417586;-82
2023/07/21 07:36:51;;;;;;;11.68;3.67;;;;;;;;;;4368494;32;317007;-81
2023/07/21 07:39:18;;;;;;;7.90;4.18;;;;;;;;;;4357166;32;318382;-81
2023/07/21 07:41:45;;;;;;;9.70;3.45;;;;;;;;;;4367760;32;317397;-81
2023/07/21 07:44:13;;;;;;;12.32;3.45;;;;;;;;;;4357812;32;316671;-82
2023/07/21 07:46:40;;;;;;;6.62;3.28;;;;;;;;;;4367251;32;318431;-82
2023/07/21 07:49:07;;;;;;;7.50;4.05;;;;;;;;;;4356823;32;317304;-81
2023/07/21 07:51:33;;;;;;;5.87;3.28;;;;;;;;;;4365909;32;338103;-82
2023/07/21 07:54:01;;;;;;;8.73;4.05;;;;;;;;;;4357457;32;317377;-82
2023/07/21 07:56:27;;;;;;;6.45;3.45;;;;;;;;;;4366432;32;317147;-81
2023/07/21 07:58:57;;;;;;;9.38;4.37;;;;;;;;;;4367576;32;317736;-81
2023/07/21 08:01:25;;;;;;;4.93;3.10;;;;;;;;;;4353543;32;417977;-82
2023/07/21 08:03:53;;;;;;;6.20;4.07;;;;;;;;;;4386585;32;316922;-81
2023/07/21 08:06:22;;;;;;;5.03;3.05;;;;;;;;;;4402656;32;20221;-82
2023/07/21 08:08:48;;;;;;;8.48;3.67;;;;;;;;;;4402302;32;20230;-83
2023/07/21 08:11:15;;;;;;;7.00;3.78;;;;;;;;;;4392243;32;315755;-83
2023/07/21 08:13:42;;;;;;;6.45;3.50;;;;;;;;;;4380801;32;316878;-88
2023/07/21 08:16:10;;;;;;;10.63;4.17;;;;;;;;;;4371003;32;322616;-86
2023/07/21 08:18:38;;;;;;;10.20;4.05;;;;;;;;;;4381802;32;318236;-86
2023/07/21 08:21:18;;;;;;;5.70;3.40;;;;;;;;;;4371473;32;335512;-82
2023/07/21 08:23:45;;;;;;;9.05;3.22;;;;;;;;;;4381894;32;317292;-80
2023/07/21 08:26:11;;;;;;;10.88;3.78;;;;;;;;;;4372224;32;317646;-81
2023/07/21 08:28:38;;;;;;;8.35;3.10;;;;;;;;;;4379380;32;318218;-82
2023/07/21 08:31:05;;;;;;;12.02;3.75;;;;;;;;;;4391107;32;317280;-81
2023/07/21 08:33:31;;;;;;;14.75;4.30;;;;;;;;;;4371255;32;318501;-81
2023/07/21 08:36:00;;;;;;;9.32;4.07;;;;;;;;;;4382310;32;318273;-81
2023/07/21 08:38:26;;;;;;;4.68;3.08;;;;;;;;;;4369297;32;317220;-82
2023/07/21 08:41:01;;;;;;;9.35;3.42;;;;;;;;;;4366994;32;316615;-81
2023/07/21 08:43:28;;;;;;;5.93;3.75;;;;;;;;;;4355152;32;317409;-82
2023/07/21 08:45:59;;;;;;;14.87;4.22;;;;;;;;;;4367334;32;317053;-81
2023/07/21 08:48:25;;;;;;;14.00;3.72;;;;;;;;;;4356715;32;318734;-82
2023/07/21 08:50:54;;;;;;;12.40;3.90;;;;;;;;;;4367034;32;318349;-81
2023/07/21 08:53:24;;;;;;;12.32;3.40;;;;;;;;;;4357125;32;318463;-82
2023/07/21 08:55:53;;;;;;;10.55;3.75;;;;;;;;;;4366803;32;318165;-81
2023/07/21 08:58:20;;;;;;;9.82;3.90;;;;;;;;;;4364552;32;318686;-81
2023/07/21 09:00:47;;;;;;;6.62;3.25;;;;;;;;;;4386224;32;20250;-81
2023/07/21 09:03:22;;;;;;;7.65;3.80;;;;;;;;;;4391377;32;20729;-81
2023/07/21 09:05:49;;;;;;;9.80;3.33;;;;;;;;;;4387832;32;315718;-81
2023/07/21 09:08:24;;;;;;;11.80;3.62;;;;;;;;;;4354465;32;316751;-81
2023/07/21 09:10:51;;;;;;;7.35;3.55;;;;;;;;;;4386280;32;20245;-82
2023/07/21 09:13:19;;;;;;;7.30;3.85;;;;;;;;;;4385954;32;20641;-81
2023/07/21 09:15:51;;;;;;;9.85;3.40;;;;;;;;;;4386301;32;20245;-81
2023/07/21 09:18:18;;;;;;;8.32;3.47;;;;;;;;;;4375060;32;315593;-82
2023/07/21 09:20:47;;;;;;;7.53;3.40;;;;;;;;;;4366946;32;315773;-82
2023/07/21 09:23:18;;;;;;;7.47;3.58;;;;;;;;;;4356850;32;317223;-82
2023/07/21 09:25:54;;;;;;;7.80;4.22;;;;;;;;;;4367608;32;317030;-82
2023/07/21 09:28:22;;;;;;;9.07;3.72;;;;;;;;;;4356399;32;315675;-82
2023/07/21 09:30:51;;;;;;;6.22;2.80;;;;;;;;;;4367403;32;315973;-82
2023/07/21 09:33:22;;;;;;;7.55;3.17;;;;;;;;;;4357078;32;316668;-82
2023/07/21 09:35:48;;;;;;;8.45;3.70;;;;;;;;;;4367633;32;315904;-82
2023/07/21 09:38:15;;;;;;;13.25;3.15;;;;;;;;;;4356065;32;315925;-82
2023/07/21 09:40:42;;;;;;;10.70;4.12;;;;;;;;;;4365878;32;341714;-82
2023/07/21 09:43:11;;;;;;;13.43;4.28;;;;;;;;;;4366559;32;316916;-82
2023/07/21 09:45:38;;;;;;;8.63;3.47;;;;;;;;;;4352687;32;416716;-82
2023/07/21 09:48:06;;;;;;;13.15;4.57;;;;;;;;;;4365307;32;317168;-82
2023/07/21 09:50:33;;;;;;;8.98;3.85;;;;;;;;;;4350976;32;327245;-82
2023/07/21 09:53:03;;;;;;;13.73;4.78;;;;;;;;;;4375567;32;317470;-82
2023/07/21 09:55:40;;;;;;;12.05;3.80;;;;;;;;;;4356281;32;325489;-82
2023/07/21 09:58:14;;;;;;;10.88;3.60;;;;;;;;;;4366358;32;318330;-82
2023/07/21 10:00:42;;;;;;;14.87;4.12;;;;;;;;;;4366691;32;318306;-82
2023/07/21 10:03:09;;;;;;;13.15;5.20;;;;;;;;;;4358757;32;415769;-82
2023/07/21 10:05:38;;;;;;;11.20;4.32;;;;;;;;;;4371961;32;318265;-82
2023/07/21 10:08:06;;;;;;;21.05;4.45;;;;;;;;;;4372070;32;322056;-82
2023/07/21 10:10:33;;;;;;;7.95;4.00;;;;;;;;;;4383897;32;335250;-82
2023/07/21 10:13:07;;;;;;;6.15;3.67;;;;;;;;;;4374115;32;317435;-82
2023/07/21 10:15:36;;;;;;;7.22;3.92;;;;;;;;;;4384096;32;316880;-82
2023/07/21 10:18:06;;;;;;;8.23;4.05;;;;;;;;;;4374305;32;317394;-82
2023/07/21 10:20:44;;;;;;;6.32;3.95;;;;;;;;;;4384255;32;317172;-82
2023/07/21 10:23:13;;;;;;;14.75;4.18;;;;;;;;;;4371272;32;416530;-82
2023/07/21 10:26:11;;;;;;;8.45;4.55;;;;;;;;;;4384043;32;318519;-82
2023/07/21 10:28:42;;;;;;;9.07;4.22;;;;;;;;;;4365867;32;417581;-82
2023/07/21 10:31:39;;;;;;;9.88;4.72;;;;;;;;;;4372540;32;317290;-82
2023/07/21 10:34:10;;;;;;;11.05;4.20;;;;;;;;;;4373258;32;317090;-81
2023/07/21 10:36:45;;;;;;;7.30;3.78;;;;;;;;;;4382688;32;318516;-82
2023/07/21 10:39:14;;;;;;;6.68;3.30;;;;;;;;;;4373956;32;317769;-82
2023/07/21 10:41:41;;;;;;;8.50;3.60;;;;;;;;;;4383554;32;316886;-82
2023/07/21 10:44:09;;;;;;;8.73;4.57;;;;;;;;;;4373944;32;317496;-82
2023/07/21 10:46:38;;;;;;;16.98;4.28;;;;;;;;;;4383402;32;316904;-83
2023/07/21 10:49:06;;;;;;;18.37;4.68;;;;;;;;;;4361643;32;318502;-82
2023/07/21 10:51:32;;;;;;;13.25;4.68;;;;;;;;;;4372866;32;323217;-82
2023/07/21 10:53:59;;;;;;;12.82;4.12;;;;;;;;;;4370304;32;318132;-82
2023/07/21 10:56:27;;;;;;;12.32;4.57;;;;;;;;;;4382139;32;318243;-82
2023/07/21 10:58:54;;;;;;;14.48;4.65;;;;;;;;;;4392287;32;318166;-82
2023/07/21 11:01:21;;;;;;;17.33;5.15;;;;;;;;;;4372455;32;331326;-82
2023/07/21 11:03:49;;;;;;;12.77;4.75;;;;;;;;;;4382269;32;318886;-82
2023/07/21 11:06:16;;;;;;;11.20;4.70;;;;;;;;;;4373277;32;318481;-82
2023/07/21 11:08:43;;;;;;;22.10;4.55;;;;;;;;;;4382800;32;318441;-82
2023/07/21 11:11:10;;;;;;;16.25;4.90;;;;;;;;;;4373393;32;318292;-82
2023/07/21 11:13:38;;;;;;;22.15;6.32;;;;;;;;;;4376482;32;317504;-82
2023/07/21 11:16:05;;;;;;;14.82;4.80;;;;;;;;;;4354507;32;318540;-82
2023/07/21 11:18:32;;;;;;;10.00;4.00;;;;;;;;;;4367328;32;318204;-82
2023/07/21 11:21:00;;;;;;;30.42;5.45;;;;;;;;;;4367271;32;328364;-82
2023/07/21 11:23:27;;;;;;;12.70;5.60;;;;;;;;;;4355143;32;417970;-82
2023/07/21 11:26:02;;;;;;;10.15;4.70;;;;;;;;;;4368314;32;318537;-85
2023/07/21 11:28:29;;;;;;;11.73;4.35;;;;;;;;;;4352653;32;418996;-82
2023/07/21 11:30:56;;;;;;;17.27;5.18;;;;;;;;;;4366793;32;318579;-83
2023/07/21 11:33:23;;;;;;;10.20;5.00;;;;;;;;;;4366829;32;317595;-83
2023/07/21 11:35:51;;;;;;;26.92;5.40;;;;;;;;;;4355882;32;318263;-83
2023/07/21 11:38:20;;;;;;;20.00;5.07;;;;;;;;;;4368009;32;319069;-82
2023/07/21 11:40:48;;;;;;;23.83;4.87;;;;;;;;;;4366601;32;317945;-81
2023/07/21 11:43:15;;;;;;;13.55;5.50;;;;;;;;;;4353689;32;417193;-82
2023/07/21 11:45:42;;;;;;;12.27;5.43;;;;;;;;;;4366701;32;351539;-81
2023/07/21 11:48:14;;;;;;;16.65;4.87;;;;;;;;;;4356169;32;317964;-82
2023/07/21 11:50:48;;;;;;;18.00;5.32;;;;;;;;;;4367948;32;318583;-82
2023/07/21 11:53:15;;;;;;;14.85;5.20;;;;;;;;;;4339392;32;417662;-82
2023/07/21 11:55:44;;;;;;;12.60;5.03;;;;;;;;;;4351683;32;318346;-82
2023/07/21 11:58:11;;;;;;;16.90;6.07;;;;;;;;;;4354617;32;318473;-81
2023/07/21 12:00:39;;;;;;;13.32;5.15;;;;;;;;;;4372374;32;317618;-81
2023/07/21 12:03:06;;;;;;;20.50;5.15;;;;;;;;;;4370707;32;346213;-81
2023/07/21 12:05:35;;;;;;;13.65;4.85;;;;;;;;;;4381765;32;317757;-81
2023/07/21 12:08:01;;;;;;;13.15;4.65;;;;;;;;;;4372000;32;318397;-81
2023/07/21 12:10:29;;;;;;;10.27;4.72;;;;;;;;;;4382390;32;317634;-82
2023/07/21 12:12:57;;;;;;;17.43;4.57;;;;;;;;;;4369587;32;317683;-82
2023/07/21 12:15:24;;;;;;;15.85;5.28;;;;;;;;;;4380992;32;318321;-82
2023/07/21 12:17:50;;;;;;;21.95;5.55;;;;;;;;;;4370306;32;391482;-83
2023/07/21 12:20:18;;;;;;;13.65;5.95;;;;;;;;;;4382269;32;317725;-82
2023/07/21 12:22:44;;;;;;;20.92;5.75;;;;;;;;;;4382060;32;318392;-81
2023/07/21 12:25:12;;;;;;;20.85;5.45;;;;;;;;;;4372255;32;318423;-82
2023/07/21 12:27:38;;;;;;;15.63;4.40;;;;;;;;;;4382332;32;318523;-81
2023/07/21 12:30:09;;;;;;;23.02;5.40;;;;;;;;;;4371776;32;318407;-82
2023/07/21 12:32:36;;;;;;;16.02;5.10;;;;;;;;;;4381766;32;318282;-82
2023/07/21 12:35:05;;;;;;;15.63;5.05;;;;;;;;;;4371590;32;318237;-82
2023/07/21 12:37:32;;;;;;;14.80;4.43;;;;;;;;;;4382369;32;317473;-81
2023/07/21 12:39:59;;;;;;;25.12;6.07;;;;;;;;;;4372267;32;318339;-82
2023/07/21 12:42:29;;;;;;;12.35;5.28;;;;;;;;;;4382062;32;318058;-82
2023/07/21 12:44:56;;;;;;;16.62;5.32;;;;;;;;;;4370587;32;318649;-81
2023/07/21 12:47:24;;;;;;;14.80;4.62;;;;;;;;;;4381089;32;318072;-82
2023/07/21 12:49:51;;;;;;;14.80;5.68;;;;;;;;;;4366330;32;317773;-83
2023/07/21 12:52:18;;;;;;;21.12;4.65;;;;;;;;;;4379595;32;318152;-82
2023/07/21 12:54:44;;;;;;;15.30;4.50;;;;;;;;;;4381866;32;318189;-82
2023/07/21 12:57:11;;;;;;;17.10;5.28;;;;;;;;;;4364457;32;318623;-82
2023/07/21 12:59:38;;;;;;;10.52;5.05;;;;;;;;;;4365700;32;318213;-81
2023/07/21 13:02:06;;;;;;;14.55;5.70;;;;;;;;;;4355844;32;318213;-82
2023/07/21 13:04:34;;;;;;;20.27;4.22;;;;;;;;;;4366389;32;318293;-82
2023/07/21 13:07:07;;;;;;;10.63;5.40;;;;;;;;;;4355501;32;318038;-82
2023/07/21 13:09:34;;;;;;;27.92;4.85;;;;;;;;;;4364816;32;318121;-82
2023/07/21 13:12:00;;;;;;;17.70;5.75;;;;;;;;;;4356316;32;318653;-82
2023/07/21 13:14:27;;;;;;;17.50;5.45;;;;;;;;;;4387183;32;20237;-82
2023/07/21 13:16:54;;;;;;;25.55;4.78;;;;;;;;;;4365324;32;317452;-82
2023/07/21 13:19:20;;;;;;;18.87;4.93;;;;;;;;;;4355295;32;318327;-82
2023/07/21 13:21:49;;;;;;;23.85;5.07;;;;;;;;;;4366281;32;318301;-83
2023/07/21 13:24:15;;;;;;;9.80;4.45;;;;;;;;;;4353320;32;318352;-83
2023/07/21 13:26:42;;;;;;;15.23;4.75;;;;;;;;;;4366691;32;317095;-82
2023/07/21 13:29:11;;;;;;;20.40;5.20;;;;;;;;;;4365846;32;318754;-82
2023/07/21 13:31:38;;;;;;;18.83;5.68;;;;;;;;;;4355107;32;318251;-82
2023/07/21 13:34:04;;;;;;;14.02;5.12;;;;;;;;;;4341215;32;318231;-82
2023/07/21 13:36:33;;;;;;;22.80;5.18;;;;;;;;;;4350043;32;340365;-82
2023/07/21 13:39:02;;;;;;;12.15;4.75;;;;;;;;;;4345117;32;318155;-84
2023/07/21 13:41:31;;;;;;;22.05;5.87;;;;;;;;;;4349914;32;318435;-82
2023/07/21 13:43:58;;;;;;;18.48;5.53;;;;;;;;;;4351114;32;318016;-82
2023/07/21 13:46:25;;;;;;;22.75;5.87;;;;;;;;;;4342494;32;318327;-82
2023/07/21 13:48:52;;;;;;;20.15;5.90;;;;;;;;;;4353945;32;332896;-82
2023/07/21 13:51:19;;;;;;;15.85;5.40;;;;;;;;;;4357349;32;318141;-83
2023/07/21 13:53:45;;;;;;;30.50;6.53;;;;;;;;;;4366958;32;318542;-82
2023/07/21 13:56:14;;;;;;;24.87;5.35;;;;;;;;;;4368069;32;318354;-81
2023/07/21 13:58:40;;;;;;;15.25;4.72;;;;;;;;;;4357405;32;318727;-81
2023/07/21 14:01:07;;;;;;;20.50;5.28;;;;;;;;;;4368105;32;317952;-81
2023/07/21 14:03:34;;;;;;;15.13;4.80;;;;;;;;;;4356176;32;318362;-82
2023/07/21 14:06:00;;;;;;;20.88;4.78;;;;;;;;;;4369423;32;317520;-82
2023/07/21 14:08:27;;;;;;;16.67;4.25;;;;;;;;;;4368932;32;317803;-82
2023/07/21 14:10:54;;;;;;;10.38;4.80;;;;;;;;;;4359393;32;318548;-82
2023/07/21 14:13:22;;;;;;;20.62;5.45;;;;;;;;;;4369060;32;318332;-82
2023/07/21 14:15:49;;;;;;;29.17;5.12;;;;;;;;;;4358204;32;318272;-81
2023/07/21 14:18:19;;;;;;;27.15;5.87;;;;;;;;;;4367888;32;317705;-80
2023/07/21 14:20:45;;;;;;;15.27;5.12;;;;;;;;;;4359376;32;318663;-80
2023/07/21 14:23:12;;;;;;;13.95;5.60;;;;;;;;;;4368916;32;318347;-80
2023/07/21 14:25:39;;;;;;;17.83;5.07;;;;;;;;;;4359273;32;318439;-83
2023/07/21 14:28:06;;;;;;;18.52;5.10;;;;;;;;;;4378691;32;318141;-81